Time,TemperatureF,DewpointF,PressureIn,WindDirection,WindDirectionDegrees,WindSpeedMPH,WindSpeedGustMPH,Humidity,HourlyPrecipIn,Conditions,Clouds,dailyrainin,SoftwareType,DateUTC
2013-09-21 00:11:00,49.0,27.0,-100.00,East,100,3.0,10.0,43,0.00,,,-99.99,,2013-09-21 07:11:00,
2013-09-21 00:21:00,48.0,26.0,-100.00,ESE,114,2.0,5.0,42,0.00,,,-99.99,,2013-09-21 07:21:00,
2013-09-21 00:42:00,50.0,25.0,-100.00,ENE,78,2.0,8.0,37,0.00,,,-99.99,,2013-09-21 07:42:00,
2013-09-21 00:52:00,50.0,25.0,-100.00,ENE,78,2.0,8.0,37,0.00,,,-99.99,,2013-09-21 07:52:00,
2013-09-21 01:03:00,50.0,25.0,-100.00,ENE,78,2.0,8.0,37,0.00,,,-99.99,,2013-09-21 08:03:00,
2013-09-21 01:21:00,50.0,29.0,-100.00,ESE,104,2.0,7.0,45,0.00,,,-99.99,,2013-09-21 08:21:00,
2013-09-21 01:31:00,50.0,29.0,-100.00,ESE,104,2.0,7.0,45,0.00,,,-99.99,,2013-09-21 08:31:00,
2013-09-21 01:42:00,50.0,29.0,-100.00,ESE,104,2.0,7.0,45,0.00,,,-99.99,,2013-09-21 08:42:00,
2013-09-21 02:11:00,49.0,30.0,-100.00,East,90,2.0,7.0,48,0.00,,,-99.99,,2013-09-21 09:11:00,
2013-09-21 02:22:00,49.0,30.0,-100.00,East,90,2.0,7.0,48,0.00,,,-99.99,,2013-09-21 09:22:00,
2013-09-21 02:43:00,51.0,31.0,-100.00,East,80,3.0,8.0,46,0.00,,,-99.99,,2013-09-21 09:43:00,
2013-09-21 02:53:00,51.0,29.0,-100.00,ENE,76,3.0,9.0,43,0.00,,,-99.99,,2013-09-21 09:53:00,
2013-09-21 03:03:00,51.0,29.0,-100.00,ENE,76,3.0,9.0,43,0.00,,,-99.99,,2013-09-21 10:03:00,
2013-09-21 03:12:00,51.0,29.0,-100.00,ENE,76,3.0,9.0,43,0.00,,,-99.99,,2013-09-21 10:12:00,
2013-09-21 03:42:00,52.0,28.0,-100.00,ENE,61,4.0,14.0,40,0.00,,,-99.99,,2013-09-21 10:42:00,
2013-09-21 03:52:00,52.0,29.0,-100.00,NE,45,5.0,9.0,41,0.00,,,-99.99,,2013-09-21 10:52:00,
2013-09-21 04:11:00,51.0,30.0,-100.00,NE,48,5.0,11.0,44,0.00,,,-99.99,,2013-09-21 11:11:00,
2013-09-21 04:23:00,51.0,30.0,-100.00,NE,48,5.0,11.0,44,0.00,,,-99.99,,2013-09-21 11:23:00,
2013-09-21 04:42:00,51.0,31.0,-100.00,ENE,59,5.0,13.0,47,0.00,,,-99.99,,2013-09-21 11:42:00,
2013-09-21 04:52:00,51.0,33.0,-100.00,NE,52,5.0,10.0,49,0.00,,,-99.99,,2013-09-21 11:52:00,
2013-09-21 05:02:00,51.0,33.0,-100.00,NE,52,5.0,10.0,49,0.00,,,-99.99,,2013-09-21 12:02:00,
2013-09-21 05:21:00,51.0,33.0,-100.00,NE,44,6.0,11.0,49,0.00,,,-99.99,,2013-09-21 12:21:00,
2013-09-21 05:42:00,51.0,33.0,-100.00,NE,55,6.0,12.0,49,0.00,,,-99.99,,2013-09-21 12:42:00,
2013-09-21 05:52:00,51.0,33.0,-100.00,NE,55,6.0,12.0,49,0.00,,,-99.99,,2013-09-21 12:52:00,
2013-09-21 06:11:00,51.0,33.0,-100.00,NE,48,7.0,12.0,50,0.00,,,-99.99,,2013-09-21 13:11:00,
2013-09-21 06:21:00,51.0,33.0,-100.00,NE,45,6.0,11.0,50,0.00,,,-99.99,,2013-09-21 13:21:00,
2013-09-21 06:42:00,51.0,34.0,-100.00,ENE,59,6.0,12.0,51,0.00,,,-99.99,,2013-09-21 13:42:00,
2013-09-21 06:52:00,51.0,34.0,-100.00,ENE,59,6.0,12.0,51,0.00,,,-99.99,,2013-09-21 13:52:00,
2013-09-21 07:02:00,51.0,34.0,-100.00,ENE,59,6.0,12.0,51,0.00,,,-99.99,,2013-09-21 14:02:00,
2013-09-21 07:22:00,50.0,34.0,-100.00,NE,54,5.0,9.0,54,0.00,,,-99.99,,2013-09-21 14:22:00,
2013-09-21 07:42:00,50.0,34.0,-100.00,NE,51,4.0,12.0,54,0.00,,,-99.99,,2013-09-21 14:42:00,
2013-09-21 08:12:00,50.0,35.0,-100.00,NE,52,4.0,11.0,56,0.00,,,-99.99,,2013-09-21 15:12:00,
2013-09-21 08:22:00,50.0,35.0,-100.00,NE,52,4.0,11.0,56,0.00,,,-99.99,,2013-09-21 15:22:00,
2013-09-21 08:44:00,50.0,35.0,-100.00,NE,51,4.0,9.0,57,0.00,,,-99.99,,2013-09-21 15:44:00,
2013-09-21 08:54:00,51.0,37.0,-100.00,NE,42,5.0,11.0,59,0.00,,,-99.99,,2013-09-21 15:54:00,
2013-09-21 09:05:00,51.0,37.0,-100.00,NE,42,5.0,11.0,59,0.00,,,-99.99,,2013-09-21 16:05:00,
2013-09-21 09:43:00,51.0,37.0,-100.00,ENE,65,4.0,11.0,58,0.00,,,-99.99,,2013-09-21 16:43:00,
2013-09-21 09:54:00,52.0,38.0,-100.00,NE,34,3.0,10.0,58,0.00,,,-99.99,,2013-09-21 16:54:00,
2013-09-21 10:03:00,52.0,38.0,-100.00,NE,34,3.0,10.0,58,0.00,,,-99.99,,2013-09-21 17:03:00,
2013-09-21 10:23:00,53.0,37.0,-100.00,NE,54,4.0,9.0,54,0.00,,,-99.99,,2013-09-21 17:23:00,
2013-09-21 10:43:00,55.0,37.0,-100.00,NE,45,4.0,13.0,51,0.00,,,-99.99,,2013-09-21 17:43:00,
2013-09-21 10:52:00,55.0,36.0,-100.00,NE,44,5.0,13.0,48,0.00,,,-99.99,,2013-09-21 17:52:00,
2013-09-21 11:01:00,56.0,38.0,-100.00,NE,48,7.0,14.0,51,0.00,,,-99.99,,2013-09-21 18:01:00,
2013-09-21 11:12:00,55.0,36.0,-100.00,NE,51,7.0,14.0,49,0.00,,,-99.99,,2013-09-21 18:12:00,
2013-09-21 11:42:00,56.0,38.0,-100.00,NE,48,7.0,14.0,51,0.00,,,-99.99,,2013-09-21 18:42:00,
2013-09-21 11:52:00,56.0,38.0,-100.00,NE,48,7.0,14.0,51,0.00,,,-99.99,,2013-09-21 18:52:00,
2013-09-21 12:21:00,52.0,41.0,-100.00,NE,44,9.0,15.0,66,0.00,,,-99.99,,2013-09-21 19:21:00,
2013-09-21 12:42:00,50.0,42.0,-100.00,NE,44,6.0,12.0,74,0.00,,,-99.99,,2013-09-21 19:42:00,
2013-09-21 12:52:00,50.0,42.0,-100.00,NE,44,6.0,12.0,74,0.00,,,-99.99,,2013-09-21 19:52:00,
2013-09-21 13:01:00,50.0,42.0,-100.00,NE,44,6.0,12.0,74,0.00,,,-99.99,,2013-09-21 20:01:00,
2013-09-21 13:22:00,45.0,43.0,-100.00,NE,44,7.0,13.0,92,0.00,,,-99.99,,2013-09-21 20:22:00,
2013-09-21 13:42:00,44.0,42.0,-100.00,NE,37,5.0,14.0,93,0.00,,,-99.99,,2013-09-21 20:42:00,
2013-09-21 14:12:00,42.0,40.0,-100.00,NE,55,6.0,12.0,94,0.00,,,-99.99,,2013-09-21 21:12:00,
2013-09-21 14:21:00,43.0,42.0,-100.00,NE,41,5.0,12.0,96,0.00,,,-99.99,,2013-09-21 21:21:00,
2013-09-21 14:44:00,47.0,45.0,-100.00,North,11,2.0,8.0,94,0.00,,,-99.99,,2013-09-21 21:44:00,
2013-09-21 15:13:00,47.0,45.0,-100.00,NE,45,4.0,9.0,91,0.00,,,-99.99,,2013-09-21 22:13:00,
2013-09-21 15:23:00,47.0,43.0,-100.00,NE,44,6.0,14.0,87,0.00,,,-99.99,,2013-09-21 22:23:00,
2013-09-21 15:32:00,47.0,42.0,-100.00,NE,42,5.0,9.0,83,0.00,,,-99.99,,2013-09-21 22:32:00,
2013-09-21 15:33:00,47.0,43.0,-100.00,NE,44,6.0,14.0,87,0.00,,,-99.99,,2013-09-21 22:33:00,
2013-09-21 15:43:00,47.0,43.0,-100.00,NE,44,6.0,14.0,87,0.00,,,-99.99,,2013-09-21 22:43:00,
2013-09-21 16:12:00,47.0,42.0,-100.00,NE,42,5.0,9.0,83,0.00,,,-99.99,,2013-09-21 23:12:00,
2013-09-21 16:22:00,47.0,42.0,-100.00,NE,42,5.0,9.0,83,0.00,,,-99.99,,2013-09-21 23:22:00,
2013-09-21 16:52:00,42.0,37.0,-100.00,NNE,30,2.0,8.0,83,0.00,,,-99.99,,2013-09-21 23:52:00,
2013-09-21 17:02:00,42.0,37.0,-100.00,NNE,30,2.0,8.0,83,0.00,,,-99.99,,2013-09-22 00:02:00,
2013-09-21 17:22:00,41.0,37.0,-100.00,NE,44,1.0,5.0,86,0.00,,,-99.99,,2013-09-22 00:22:00,
2013-09-21 17:43:00,41.0,39.0,-100.00,NE,51,2.0,6.0,91,0.00,,,-99.99,,2013-09-22 00:43:00,
2013-09-21 17:52:00,41.0,39.0,-100.00,NE,44,3.0,5.0,93,0.00,,,-99.99,,2013-09-22 00:52:00,
2013-09-21 18:01:00,39.0,37.0,-100.00,NW,319,1.0,4.0,93,0.00,,,-99.99,,2013-09-22 01:01:00,
2013-09-21 18:02:00,41.0,39.0,-100.00,NE,44,3.0,5.0,93,0.00,,,-99.99,,2013-09-22 01:02:00,
2013-09-21 18:11:00,41.0,39.0,-100.00,NE,44,3.0,5.0,93,0.00,,,-99.99,,2013-09-22 01:11:00,
2013-09-21 18:22:00,39.0,37.0,-100.00,North,-999,-999.0,-999.0,93,0.00,,,-99.99,,2013-09-22 01:22:00,
2013-09-21 18:42:00,39.0,37.0,-100.00,NW,319,1.0,4.0,93,0.00,,,-99.99,,2013-09-22 01:42:00,
2013-09-21 18:52:00,39.0,37.0,-100.00,NW,319,1.0,4.0,93,0.00,,,-99.99,,2013-09-22 01:52:00,
2013-09-21 19:22:00,39.0,37.0,-100.00,NE,45,2.0,8.0,93,0.00,,,-99.99,,2013-09-22 02:22:00,
2013-09-21 19:32:00,39.0,37.0,-100.00,NE,45,2.0,8.0,93,0.00,,,-99.99,,2013-09-22 02:32:00,
2013-09-21 19:52:00,39.0,37.0,-100.00,NNE,32,3.0,6.0,94,0.00,,,-99.99,,2013-09-22 02:52:00,
2013-09-21 20:02:00,39.0,37.0,-100.00,NNE,32,3.0,6.0,94,0.00,,,-99.99,,2013-09-22 03:02:00,
2013-09-21 20:45:00,37.0,35.0,-100.00,ENE,66,3.0,7.0,93,0.00,,,-99.99,,2013-09-22 03:45:00,
2013-09-21 20:54:00,37.0,35.0,-100.00,ENE,66,3.0,7.0,93,0.00,,,-99.99,,2013-09-22 03:54:00,
2013-09-21 21:02:00,-999.0,-99.9,-100.00,ENE,66,3.0,7.0,-999,-99.99,,,-99.99,,2013-09-22 04:02:00,
2013-09-21 21:23:00,37.0,35.0,-100.00,North,-999,-999.0,-999.0,94,0.00,,,-99.99,,2013-09-22 04:23:00,
2013-09-21 21:44:00,37.0,35.0,-100.00,SSE,147,1.0,2.0,94,0.00,,,-99.99,,2013-09-22 04:44:00,
2013-09-21 21:54:00,38.0,36.0,-100.00,ENE,59,3.0,8.0,92,0.00,,,-99.99,,2013-09-22 04:54:00,
2013-09-21 22:03:00,38.0,36.0,-100.00,ENE,59,3.0,8.0,92,0.00,,,-99.99,,2013-09-22 05:03:00,
2013-09-21 22:43:00,38.0,35.0,-100.00,SSE,162,1.0,6.0,89,0.00,,,-99.99,,2013-09-22 05:43:00,
2013-09-21 22:53:00,38.0,35.0,-100.00,SSE,162,1.0,6.0,89,0.00,,,-99.99,,2013-09-22 05:53:00,
2013-09-21 23:12:00,37.0,34.0,-100.00,SE,137,1.0,2.0,89,0.00,,,-99.99,,2013-09-22 06:12:00,
2013-09-21 23:22:00,37.0,34.0,-100.00,SE,137,1.0,2.0,89,0.00,,,-99.99,,2013-09-22 06:22:00,
2013-09-21 23:42:00,38.0,35.0,-100.00,ESE,106,0.0,3.0,89,0.00,,,-99.99,,2013-09-22 06:42:00,
2013-09-21 23:52:00,38.0,34.0,-100.00,SE,134,1.0,3.0,87,0.00,,,-99.99,,2013-09-22 06:52:00,